Terminal Aerodrome Forecast
Issued by NWS Shreveport, LA

Home | Current Version | Previous Version | Text Only | Print | Product List | Glossary On
Versions: 1 2 3 4 5 6 7 8 9 10 11 12 13
000
FTUS44 KSHV 011723
TAFMLU
TAF
KMLU 011723Z 0118/0218 34004KT P6SM SCT250
     FM020000 00000KT P6SM BKN150 BKN250
     FM021200 VRB03KT P6SM SCT250=

USA.gov is the U.S. government's official web portal to all federal, state and local government web resources and services.